CheckWX is a tool to help pilots better visualize weather data.  It is not intended as a substitute for an official pre-flight weather briefing.

02:49:35 UTC

KSMP METAR
Stampede Pass Airport
Washington, USA
Current

54 mins ago

KSMP 230156Z AUTO VRB04KT 1/4SM -RA FG VV002 10/09 A2994 RMK AO2 RAE02B48 SLP148 P0001 T01000089
Observed
Sep-23 @ 01:56 UTC
Wind
  • Variable at 4 KTS
Visibility
1/4 SM
Flight Rules
LIFR
Conditions
Light Rain, Fog
Cloud Levels
  • Vertical visibility at 200' AGL
Temperature
10°C / 50°F
Dewpoint
C / 48°F
Humidity
94%
Altimeter
29.94" Hg
Pressure
1013.92 hPa
Current Rain
0.01"
Previous

1 hour ago

KSMP 230137Z AUTO VRB04KT 1/4SM FG BKN003 OVC007 10/09 A2994 RMK AO2 RAE02 P0001 T01000089
Observed
Sep-23 @ 01:37 UTC
Wind
  • Variable at 4 KTS
Visibility
1/4 SM
Flight Rules
LIFR
Conditions
Fog
Cloud Levels
  • Broken at 300' AGL
  • Overcast at 700' AGL
Temperature
10°C / 50°F
Dewpoint
C / 48°F
Humidity
94%
Altimeter
29.94" Hg
Pressure
1013.92 hPa
Current Rain
0.01"
Previous

2 hours ago

KSMP 230117Z AUTO 26007KT 170V310 1 1/2SM BR BKN006 BKN011 OVC028 10/08 A2993 RMK AO2 VIS 3/4V4 RAE02 P0000 T01000083
Observed
Sep-23 @ 01:17 UTC
Wind
  • 260° at 7 KTS
Visibility
1 1/2 SM
Flight Rules
IFR
Conditions
Mist
Cloud Levels
  • Broken at 600' AGL
  • Broken at 1,100' AGL
  • Overcast at 2,800' AGL
Temperature
10°C / 50°F
Dewpoint
C / 46°F
Humidity
88%
Altimeter
29.93" Hg
Pressure
1013.52 hPa
Current Rain
0.01"